Time;durP1;ratioP1;P1;durP2;ratioP2;P2;SDS_P1;SDS_P2;PMS_P1;PMS_P2;Temp;Humidity;BMP_temperature;BMP_pressure;BME280_temperature;BME280_humidity;BME280_pressure;Samples;Min_cycle;Max_cycle;Signal;HPM_P1;HPM_P2
2023/06/08 05:03:23;;;;;;;7.20;4.55;;;17.10;95.20;;;;;;5045879;23;20079;-73
2023/06/08 05:05:50;;;;;;;4.60;3.60;;;17.40;94.60;;;;;;4896499;29;20080;-72
2023/06/08 05:08:15;;;;;;;6.47;3.83;;;17.60;94.10;;;;;;4909130;29;20023;-73
2023/06/08 05:10:41;;;;;;;6.07;4.28;;;17.80;93.10;;;;;;4897031;29;20044;-73
2023/06/08 05:13:07;;;;;;;9.63;4.50;;;18.00;93.00;;;;;;4890267;29;20032;-74
2023/06/08 05:15:33;;;;;;;5.38;3.63;;;18.10;92.60;;;;;;4889696;29;20041;-73
2023/06/08 05:17:59;;;;;;;6.07;4.05;;;18.40;92.30;;;;;;4891138;29;20040;-74
2023/06/08 05:20:26;;;;;;;5.28;3.83;;;18.50;91.70;;;;;;4908654;29;20039;-72
2023/06/08 05:22:52;;;;;;;4.82;3.50;;;18.70;91.60;;;;;;4891388;29;20226;-73
2023/06/08 05:25:19;;;;;;;6.68;4.38;;;18.90;90.40;;;;;;4908538;29;20037;-71
2023/06/08 05:27:44;;;;;;;6.43;3.65;;;19.20;90.50;;;;;;4908262;29;20096;-73
2023/06/08 05:30:11;;;;;;;5.07;3.70;;;19.20;90.10;;;;;;4908373;29;20024;-71
2023/06/08 05:32:36;;;;;;;5.40;4.05;;;19.50;88.90;;;;;;4907992;29;20100;-73
2023/06/08 05:35:03;;;;;;;4.53;3.35;;;19.70;88.30;;;;;;4907044;29;20029;-74
2023/06/08 05:37:29;;;;;;;6.50;3.67;;;19.70;87.80;;;;;;4890175;29;20036;-73
2023/06/08 05:39:55;;;;;;;5.57;3.63;;;19.70;88.00;;;;;;4889769;29;20033;-72
2023/06/08 05:42:20;;;;;;;5.03;3.70;;;19.90;86.70;;;;;;4889790;29;20037;-74
2023/06/08 05:44:46;;;;;;;4.72;4.03;;;20.00;87.10;;;;;;4889160;29;20033;-73
2023/06/08 05:47:12;;;;;;;5.28;3.97;;;20.00;86.60;;;;;;4889631;29;20032;-72
2023/06/08 05:49:38;;;;;;;5.72;3.80;;;20.10;86.20;;;;;;4889107;29;20311;-73
2023/06/08 05:52:04;;;;;;;5.43;4.05;;;20.20;85.40;;;;;;4872816;29;20041;-72
2023/06/08 05:54:30;;;;;;;5.90;3.85;;;20.20;84.80;;;;;;4889315;29;20032;-71
2023/06/08 05:56:56;;;;;;;5.25;3.85;;;20.30;84.40;;;;;;4889466;29;20096;-72
2023/06/08 05:59:22;;;;;;;6.07;3.78;;;20.20;84.20;;;;;;4889469;29;20037;-74
2023/06/08 06:01:49;;;;;;;4.68;3.80;;;20.30;85.40;;;;;;4888342;29;20382;-72
2023/06/08 06:04:15;;;;;;;5.38;3.60;;;20.00;86.00;;;;;;4889535;29;20314;-71
2023/06/08 06:06:41;;;;;;;5.32;3.45;;;19.90;85.90;;;;;;4888502;29;20029;-71
2023/06/08 06:09:08;;;;;;;5.57;3.70;;;20.00;86.10;;;;;;4889351;29;20325;-73
2023/06/08 06:11:33;;;;;;;6.68;3.90;;;20.00;85.60;;;;;;4888764;29;20032;-74
2023/06/08 06:13:59;;;;;;;7.97;5.40;;;20.30;85.70;;;;;;4889312;29;20044;-71
2023/06/08 06:16:25;;;;;;;7.68;5.45;;;20.40;84.70;;;;;;4889243;29;20029;-72
2023/06/08 06:18:50;;;;;;;5.57;3.80;;;20.60;84.30;;;;;;4888360;29;20319;-72
2023/06/08 06:21:16;;;;;;;7.32;3.80;;;20.70;83.40;;;;;;4889182;29;20073;-72
2023/06/08 06:23:44;;;;;;;4.78;3.75;;;20.80;83.20;;;;;;4888537;29;20330;-72
2023/06/08 06:26:10;;;;;;;6.03;3.90;;;21.10;82.60;;;;;;4872315;29;20085;-72
2023/06/08 06:28:36;;;;;;;4.80;3.50;;;21.50;81.50;;;;;;4888198;29;20029;-73
2023/06/08 06:31:01;;;;;;;4.95;3.80;;;21.80;80.70;;;;;;4888294;29;20203;-74
2023/06/08 06:33:27;;;;;;;7.03;3.83;;;22.00;80.00;;;;;;4889043;29;20040;-72
2023/06/08 06:35:53;;;;;;;5.05;4.07;;;22.00;79.30;;;;;;4889883;29;20029;-71
2023/06/08 06:38:20;;;;;;;6.10;3.55;;;21.90;79.00;;;;;;4907561;29;20033;-73
2023/06/08 06:40:50;;;;;;;4.10;3.30;;;21.80;79.50;;;;;;4906741;29;20028;-73
2023/06/08 06:43:16;;;;;;;5.70;3.38;;;21.80;79.70;;;;;;4891071;29;20210;-73
2023/06/08 06:45:57;;;;;;;4.15;3.40;;;21.40;80.50;;;;;;4907079;29;20309;-73
2023/06/08 06:48:22;;;;;;;3.92;3.15;;;21.40;81.00;;;;;;4907560;29;20064;-73
2023/06/08 06:50:49;;;;;;;5.40;3.75;;;21.40;81.00;;;;;;4906733;29;20037;-73
2023/06/08 06:53:15;;;;;;;9.20;6.70;;;21.40;80.80;;;;;;4907417;29;20052;-73
2023/06/08 06:55:41;;;;;;;5.10;3.97;;;21.50;81.00;;;;;;4906969;29;20079;-74
2023/06/08 06:58:08;;;;;;;6.55;4.00;;;21.60;80.70;;;;;;4907495;29;20064;-71
2023/06/08 07:00:37;;;;;;;5.97;4.45;;;21.70;80.10;;;;;;4907302;29;20028;-73
2023/06/08 07:03:07;;;;;;;8.52;4.68;;;21.90;79.80;;;;;;4906904;29;20056;-72
2023/06/08 07:05:36;;;;;;;4.43;3.35;;;22.10;79.30;;;;;;4907479;29;20020;-72
2023/06/08 07:08:03;;;;;;;5.80;3.35;;;22.20;78.60;;;;;;4907316;29;20036;-71
2023/06/08 07:10:29;;;;;;;5.88;3.92;;;22.40;78.50;;;;;;4907415;29;20096;-71
2023/06/08 07:12:56;;;;;;;5.38;3.50;;;22.50;78.30;;;;;;4906408;29;20311;-72
2023/06/08 07:15:23;;;;;;;5.63;3.30;;;22.60;77.80;;;;;;4907431;29;20382;-73
2023/06/08 07:17:50;;;;;;;5.05;3.22;;;22.70;77.40;;;;;;4906758;29;20108;-73
2023/06/08 07:20:15;;;;;;;4.03;3.00;;;22.70;77.50;;;;;;4907419;29;20092;-73
2023/06/08 07:22:41;;;;;;;4.03;2.97;;;22.90;77.10;;;;;;4889821;29;20040;-72
2023/06/08 07:25:07;;;;;;;5.47;2.97;;;23.00;77.00;;;;;;4906963;29;20075;-72
2023/06/08 07:27:33;;;;;;;4.90;3.10;;;23.20;75.60;;;;;;4907033;29;20028;-74
2023/06/08 07:29:58;;;;;;;6.28;3.30;;;23.20;75.50;;;;;;4906654;29;20036;-70
2023/06/08 07:32:26;;;;;;;5.22;3.10;;;23.20;75.70;;;;;;4907110;29;20029;-72
2023/06/08 07:34:52;;;;;;;4.45;2.90;;;23.30;75.50;;;;;;4906292;29;20040;-72
2023/06/08 07:37:18;;;;;;;3.35;2.53;;;23.30;74.30;;;;;;4907190;29;20199;-74
2023/06/08 07:39:43;;;;;;;4.00;2.90;;;23.40;74.50;;;;;;4906496;29;20035;-71
2023/06/08 07:42:09;;;;;;;5.80;3.08;;;23.60;74.20;;;;;;4908595;29;20051;-72
2023/06/08 07:44:35;;;;;;;4.80;2.85;;;23.50;73.80;;;;;;4910555;29;20307;-72
2023/06/08 07:47:01;;;;;;;4.25;2.97;;;23.50;74.10;;;;;;4892879;29;20345;-72
2023/06/08 07:49:30;;;;;;;4.38;2.75;;;23.70;74.50;;;;;;4910495;29;20091;-72
2023/06/08 07:51:55;;;;;;;4.05;2.90;;;23.70;74.00;;;;;;4909920;29;20239;-72
2023/06/08 07:54:24;;;;;;;4.50;2.75;;;23.80;73.90;;;;;;4893786;29;20195;-72
2023/06/08 07:56:50;;;;;;;3.67;2.78;;;23.90;73.00;;;;;;4909384;29;20337;-71
2023/06/08 07:59:16;;;;;;;3.80;2.95;;;23.90;72.60;;;;;;4910306;29;20059;-71
2023/06/08 08:01:45;;;;;;;6.32;2.83;;;23.80;71.80;;;;;;4908856;29;20056;-72
2023/06/08 08:04:11;;;;;;;5.18;2.83;;;23.80;71.30;;;;;;4909910;29;20036;-72
2023/06/08 08:06:37;;;;;;;4.82;2.75;;;23.70;72.20;;;;;;4909772;29;20203;-72
2023/06/08 08:09:03;;;;;;;3.35;2.50;;;23.90;71.70;;;;;;4909512;29;20035;-72
2023/06/08 08:11:29;;;;;;;3.92;2.63;;;24.00;70.80;;;;;;4909782;29;20230;-73
2023/06/08 08:13:57;;;;;;;3.63;2.65;;;24.10;70.90;;;;;;4909499;29;20048;-72
2023/06/08 08:16:24;;;;;;;3.55;2.40;;;24.30;71.10;;;;;;4893126;29;20028;-73
2023/06/08 08:18:52;;;;;;;5.07;2.85;;;24.40;70.60;;;;;;4909206;29;20052;-73
2023/06/08 08:21:17;;;;;;;3.80;2.60;;;24.50;71.20;;;;;;4909710;29;20033;-74
2023/06/08 08:23:43;;;;;;;3.33;2.40;;;24.70;71.20;;;;;;4909056;29;20048;-74
2023/06/08 08:26:09;;;;;;;5.38;2.92;;;24.70;71.20;;;;;;4909727;29;20051;-73
2023/06/08 08:28:38;;;;;;;4.45;3.20;;;24.90;70.60;;;;;;4909719;29;20052;-75
2023/06/08 08:31:04;;;;;;;4.20;3.13;;;24.80;70.00;;;;;;4909154;29;20096;-75
2023/06/08 08:33:30;;;;;;;4.75;3.97;;;24.80;70.60;;;;;;4909506;29;20322;-72
2023/06/08 08:35:55;;;;;;;5.90;3.75;;;24.80;71.10;;;;;;4909058;29;20306;-74
2023/06/08 08:38:21;;;;;;;4.75;2.92;;;24.90;70.80;;;;;;4909316;29;20035;-73
2023/06/08 08:40:50;;;;;;;4.97;3.10;;;25.00;70.00;;;;;;4907970;29;20068;-74
2023/06/08 08:43:23;;;;;;;4.68;3.03;;;25.10;70.00;;;;;;4909085;29;20227;-75
2023/06/08 08:45:50;;;;;;;7.70;4.07;;;25.20;71.00;;;;;;4909033;29;20071;-74
2023/06/08 08:48:19;;;;;;;4.43;3.38;;;25.30;72.10;;;;;;4909460;29;20036;-75
2023/06/08 08:50:53;;;;;;;6.38;3.75;;;25.20;72.10;;;;;;4908500;29;20095;-75
2023/06/08 08:53:27;;;;;;;5.70;3.95;;;25.20;72.10;;;;;;4908494;29;20040;-75
2023/06/08 08:55:55;;;;;;;3.90;3.20;;;25.10;72.20;;;;;;4908544;29;20238;-72
2023/06/08 08:58:21;;;;;;;6.90;3.58;;;25.20;71.70;;;;;;4909012;29;20029;-72
2023/06/08 09:00:50;;;;;;;6.18;3.53;;;25.30;71.00;;;;;;4891990;29;20108;-75
2023/06/08 09:03:16;;;;;;;6.00;3.35;;;25.10;68.90;;;;;;4908428;29;20049;-72
2023/06/08 09:05:45;;;;;;;5.60;3.50;;;25.20;70.00;;;;;;4908848;29;20122;-73
2023/06/08 09:08:12;;;;;;;6.40;4.47;;;25.10;69.10;;;;;;4908950;29;20104;-73
2023/06/08 09:10:37;;;;;;;7.35;3.83;;;25.10;70.70;;;;;;4908812;29;20183;-74
2023/06/08 09:13:03;;;;;;;5.72;3.80;;;25.00;70.50;;;;;;4908053;29;20029;-71
2023/06/08 09:15:36;;;;;;;6.00;3.22;;;24.90;69.80;;;;;;4908721;29;20060;-73
2023/06/08 09:18:15;;;;;;;4.47;3.20;;;24.90;70.30;;;;;;4908109;29;20235;-74
2023/06/08 09:20:42;;;;;;;4.82;3.08;;;24.90;70.40;;;;;;4892071;29;20032;-73
2023/06/08 09:23:24;;;;;;;4.60;3.17;;;25.00;69.70;;;;;;4908415;29;20028;-72
2023/06/08 09:25:52;;;;;;;4.57;3.20;;;25.00;68.80;;;;;;4908089;29;20138;-72
2023/06/08 09:28:29;;;;;;;6.03;3.00;;;24.90;68.80;;;;;;4908388;29;20243;-72
2023/06/08 09:31:00;;;;;;;4.20;3.10;;;25.10;68.30;;;;;;4908077;29;20244;-72
2023/06/08 09:33:29;;;;;;;4.15;3.10;;;25.20;67.80;;;;;;4908366;29;20060;-73
2023/06/08 09:35:57;;;;;;;5.40;4.00;;;25.30;67.50;;;;;;4907663;29;20043;-74
2023/06/08 09:38:28;;;;;;;4.75;3.30;;;25.40;67.60;;;;;;4908496;29;20084;-73
2023/06/08 09:41:15;;;;;;;4.72;3.45;;;25.30;67.40;;;;;;4908031;29;20307;-73
2023/06/08 09:43:45;;;;;;;4.15;3.08;;;25.40;66.50;;;;;;4908054;29;20037;-72
2023/06/08 09:46:16;;;;;;;5.63;3.00;;;25.50;66.60;;;;;;4908519;29;20044;-73
2023/06/08 09:48:54;;;;;;;4.93;3.28;;;25.60;66.90;;;;;;4908343;29;20076;-74
2023/06/08 09:51:23;;;;;;;;;;;25.70;66.10;;;;;;4908931;29;20040;-74
2023/06/08 09:53:59;;;;;;;5.95;3.40;;;25.80;66.20;;;;;;4907352;29;19907;-73
2023/06/08 09:56:26;;;;;;;4.22;2.92;;;25.80;66.00;;;;;;4908365;29;20259;-72
2023/06/08 09:58:58;;;;;;;4.38;3.10;;;25.50;64.80;;;;;;4907596;29;20076;-74
2023/06/08 10:01:35;;;;;;;5.40;2.83;;;25.50;65.70;;;;;;4908142;29;20104;-73
2023/06/08 10:04:11;;;;;;;4.35;2.95;;;25.80;65.50;;;;;;4907064;29;20048;-73
2023/06/08 10:06:40;;;;;;;5.82;3.00;;;26.00;65.30;;;;;;4907734;29;20091;-74
2023/06/08 10:09:07;;;;;;;3.75;2.80;;;26.30;64.70;;;;;;4907160;29;20223;-72
2023/06/08 10:11:34;;;;;;;4.77;3.00;;;26.40;64.40;;;;;;4908039;29;20043;-72
2023/06/08 10:13:59;;;;;;;4.20;3.08;;;26.50;64.50;;;;;;4906879;29;20041;-73
2023/06/08 10:16:26;;;;;;;4.03;2.83;;;26.70;64.00;;;;;;4907703;29;20050;-75
2023/06/08 10:18:53;;;;;;;5.10;2.50;;;26.80;63.80;;;;;;4907194;29;20036;-73
2023/06/08 10:21:19;;;;;;;4.65;2.80;;;26.70;62.90;;;;;;4907550;29;20083;-74
2023/06/08 10:23:45;;;;;;;4.03;3.10;;;26.70;61.80;;;;;;4907830;29;20254;-72
2023/06/08 10:26:12;;;;;;;4.05;2.90;;;26.70;62.30;;;;;;4906888;29;20068;-73
2023/06/08 10:29:10;;;;;;;3.83;2.85;;;26.80;62.70;;;;;;4907502;29;20310;-73
2023/06/08 10:31:41;;;;;;;6.70;3.35;;;26.90;62.50;;;;;;4906304;29;20212;-74
2023/06/08 10:34:09;;;;;;;4.10;3.08;;;27.00;63.10;;;;;;4906988;29;20040;-73
2023/06/08 10:36:42;;;;;;;4.97;2.97;;;27.10;62.50;;;;;;4907444;29;20039;-73
2023/06/08 10:39:13;;;;;;;4.07;3.10;;;27.20;62.30;;;;;;4907084;29;20243;-74
2023/06/08 10:41:44;;;;;;;4.03;3.22;;;27.30;61.50;;;;;;4907571;29;20088;-71
2023/06/08 10:44:27;;;;;;;4.20;2.97;;;27.50;60.40;;;;;;4906846;29;20041;-74
2023/06/08 10:47:19;;;;;;;5.65;3.30;;;27.40;60.10;;;;;;4907116;29;20191;-76
2023/06/08 10:49:50;;;;;;;3.97;3.28;;;27.30;59.90;;;;;;4904172;29;20238;-73
2023/06/08 10:52:21;;;;;;;7.63;3.80;;;27.50;60.00;;;;;;4890975;29;20037;-73
2023/06/08 10:54:52;;;;;;;5.93;3.35;;;27.60;59.60;;;;;;4907280;29;20211;-73
2023/06/08 10:57:41;;;;;;;4.88;3.60;;;27.80;59.40;;;;;;4907533;29;20036;-73
2023/06/08 11:00:23;;;;;;;4.90;3.70;;;28.10;60.40;;;;;;4906730;29;20036;-73
2023/06/08 11:02:49;;;;;;;5.28;3.83;;;28.30;60.40;;;;;;4906517;29;20052;-74
2023/06/08 11:05:16;;;;;;;3.80;3.20;;;28.50;60.00;;;;;;4907167;29;20040;-73
2023/06/08 11:07:42;;;;;;;5.75;3.55;;;28.70;59.70;;;;;;4907111;29;20218;-74
2023/06/08 11:10:09;;;;;;;4.70;3.78;;;28.90;59.60;;;;;;4906870;29;20044;-72
2023/06/08 11:12:34;;;;;;;5.28;3.38;;;29.00;58.90;;;;;;4907368;29;20069;-73
2023/06/08 11:15:00;;;;;;;5.70;3.55;;;29.00;58.60;;;;;;4906748;29;20029;-74
2023/06/08 11:17:27;;;;;;;4.50;3.70;;;29.30;59.10;;;;;;4909546;29;20092;-73
2023/06/08 11:19:52;;;;;;;4.18;3.38;;;29.40;58.80;;;;;;4910386;29;20042;-73
2023/06/08 11:22:21;;;;;;;5.53;3.47;;;29.50;58.70;;;;;;4911013;29;20068;-72
2023/06/08 11:24:47;;;;;;;5.03;3.60;;;29.70;58.20;;;;;;4911012;29;20108;-73
2023/06/08 11:27:17;;;;;;;5.65;3.70;;;29.90;57.60;;;;;;4909994;29;20032;-74
2023/06/08 11:29:46;;;;;;;4.88;3.40;;;30.00;57.40;;;;;;4911134;29;20044;-74
2023/06/08 11:32:15;;;;;;;6.38;3.60;;;29.80;57.00;;;;;;4893566;29;20056;-74
2023/06/08 11:34:45;;;;;;;;;;;30.30;57.10;;;;;;4910987;29;20036;-73
2023/06/08 11:37:18;;;;;;;4.35;3.15;;;30.70;56.10;;;;;;4909894;29;20353;-73
2023/06/08 11:39:44;;;;;;;5.82;3.58;;;31.00;55.90;;;;;;4910347;29;20314;-74
2023/06/08 11:42:10;;;;;;;6.68;3.67;;;31.30;55.60;;;;;;4910018;29;20044;-73
2023/06/08 11:44:36;;;;;;;4.00;3.38;;;31.70;54.30;;;;;;4910612;29;20065;-73
2023/06/08 11:47:03;;;;;;;5.60;3.65;;;31.40;53.90;;;;;;4909623;29;20207;-75
2023/06/08 11:49:57;;;;;;;4.67;3.10;;;31.30;54.60;;;;;;4910554;29;20133;-74
2023/06/08 11:52:24;;;;;;;5.68;3.60;;;30.90;54.20;;;;;;4910427;29;20263;-74
2023/06/08 11:54:59;;;;;;;3.60;3.03;;;30.70;54.30;;;;;;4893774;29;20035;-73
2023/06/08 11:57:43;;;;;;;5.38;3.55;;;31.50;54.30;;;;;;4910356;29;20025;-75
2023/06/08 12:00:12;;;;;;;4.60;4.10;;;33.00;52.70;;;;;;4909766;29;20036;-74
2023/06/08 12:02:41;;;;;;;5.20;3.35;;;33.40;51.30;;;;;;4909728;29;20076;-74
2023/06/08 12:05:15;;;;;;;4.65;3.30;;;32.90;52.40;;;;;;4909436;29;20344;-74
2023/06/08 12:07:55;;;;;;;5.10;3.80;;;32.40;52.10;;;;;;4910386;29;20104;-73
2023/06/08 12:10:24;;;;;;;4.97;3.42;;;31.70;53.10;;;;;;4909929;29;20044;-74
2023/06/08 12:12:51;;;;;;;4.43;3.55;;;31.00;53.90;;;;;;4893239;29;20036;-73
2023/06/08 12:15:17;;;;;;;4.45;3.65;;;31.00;54.40;;;;;;4909395;29;20040;-74
2023/06/08 12:17:43;;;;;;;6.00;3.90;;;31.00;54.00;;;;;;4909843;29;20055;-72
2023/06/08 12:20:13;;;;;;;6.88;3.83;;;30.90;54.90;;;;;;4909321;29;20048;-73
2023/06/08 12:22:39;;;;;;;4.70;3.60;;;30.50;54.70;;;;;;4909679;29;20047;-75
2023/06/08 12:25:06;;;;;;;4.43;3.47;;;30.10;54.10;;;;;;4909151;29;20036;-73
2023/06/08 12:27:36;;;;;;;4.00;3.53;;;29.70;54.70;;;;;;4908992;29;20080;-72
2023/06/08 12:30:06;;;;;;;5.22;3.47;;;29.50;55.30;;;;;;4908670;29;20056;-74
2023/06/08 12:32:32;;;;;;;27.20;5.45;;;29.30;55.60;;;;;;4909115;29;20060;-73
2023/06/08 12:34:59;;;;;;;7.90;3.10;;;28.90;57.00;;;;;;4908800;29;20035;-71
2023/06/08 12:37:25;;;;;;;12.07;3.10;;;27.80;57.50;;;;;;4892990;29;20037;-72
2023/06/08 12:39:52;;;;;;;5.50;2.80;;;27.30;57.30;;;;;;4909642;29;20045;-73
2023/06/08 12:42:20;;;;;;;6.55;3.00;;;26.90;58.20;;;;;;4908628;29;20383;-72
2023/06/08 12:44:47;;;;;;;;;;;26.30;60.20;;;;;;4909796;29;20076;-72
2023/06/08 12:47:12;;;;;;;6.22;2.88;;;25.60;62.30;;;;;;4908634;29;19930;-72
2023/06/08 12:49:41;;;;;;;5.60;3.25;;;25.00;63.10;;;;;;4909333;29;20330;-72
2023/06/08 12:52:07;;;;;;;9.45;3.60;;;24.40;66.20;;;;;;4908830;29;20057;-73
2023/06/08 12:54:34;;;;;;;12.40;5.50;;;24.10;71.90;;;;;;4909326;29;20028;-72
2023/06/08 12:57:00;;;;;;;15.40;6.47;;;23.60;77.20;;;;;;4907200;29;20252;-77
2023/06/08 12:59:26;;;;;;;15.68;6.15;;;22.60;87.40;;;;;;4908676;29;20050;-73
2023/06/08 13:01:52;;;;;;;15.52;6.00;;;21.30;91.30;;;;;;4907535;29;20044;-73
2023/06/08 13:04:19;;;;;;;10.30;5.73;;;20.20;92.60;;;;;;4908565;29;20036;-71
2023/06/08 13:06:46;;;;;;;16.50;7.05;;;16.80;99.90;;;;;;4908740;29;20051;-73
2023/06/08 13:09:11;;;;;;;12.02;5.07;;;16.80;99.90;;;;;;4908319;29;20036;-70
2023/06/08 13:11:39;;;;;;;13.32;6.07;;;14.30;99.90;;;;;;4908538;29;20088;-72
2023/06/08 13:14:06;;;;;;;12.20;6.38;;;13.40;99.90;;;;;;4907855;29;20032;-71
2023/06/08 13:16:32;;;;;;;10.45;5.22;;;12.90;99.90;;;;;;4908767;29;20080;-70
2023/06/08 13:18:58;;;;;;;9.77;5.40;;;12.50;99.90;;;;;;4907855;29;20044;-75
2023/06/08 13:21:24;;;;;;;10.43;4.70;;;12.70;99.90;;;;;;4908762;29;20311;-71
2023/06/08 13:23:50;;;;;;;9.20;6.57;;;13.10;99.90;;;;;;4908254;29;20035;-71
2023/06/08 13:26:17;;;;;;;8.20;5.88;;;13.50;99.90;;;;;;4907915;29;20061;-69
2023/06/08 13:28:44;;;;;;;13.68;7.20;;;13.70;99.90;;;;;;4908528;29;20092;-70
2023/06/08 13:31:11;;;;;;;11.13;8.07;;;13.80;99.90;;;;;;4891013;29;20295;-71
2023/06/08 13:33:36;;;;;;;18.15;9.65;;;13.90;99.90;;;;;;4908617;29;20028;-71
2023/06/08 13:36:02;;;;;;;15.45;11.52;;;14.10;99.90;;;;;;4907746;29;20382;-71
2023/06/08 13:38:29;;;;;;;22.33;13.13;;;14.40;99.90;;;;;;4908218;29;20226;-71
2023/06/08 13:40:55;;;;;;;20.20;13.30;;;14.70;99.90;;;;;;4907837;29;20043;-71
2023/06/08 13:43:21;;;;;;;22.77;15.27;;;;;;;;;;4907640;29;20230;-70
2023/06/08 13:45:46;;;;;;;20.98;14.65;;;15.30;99.90;;;;;;4908281;29;20036;-70
2023/06/08 13:48:12;;;;;;;22.92;13.93;;;15.40;99.90;;;;;;4907620;29;20079;-72
2023/06/08 13:50:38;;;;;;;20.05;13.60;;;;;;;;;;4908132;29;20038;-72
2023/06/08 13:53:04;;;;;;;18.65;12.15;;;15.60;99.90;;;;;;4907417;29;20047;-72
2023/06/08 13:55:30;;;;;;;20.67;12.40;;;15.50;99.90;;;;;;4907883;29;20338;-72
2023/06/08 13:57:55;;;;;;;16.10;10.57;;;15.60;99.90;;;;;;4907582;29;20044;-72
2023/06/08 14:00:21;;;;;;;15.50;10.23;;;15.50;99.90;;;;;;4907149;29;20024;-72
2023/06/08 14:02:47;;;;;;;13.80;9.32;;;15.60;99.90;;;;;;4907303;29;20056;-73
2023/06/08 14:05:17;;;;;;;13.38;9.68;;;15.80;99.90;;;;;;4907292;29;20043;-73
2023/06/08 14:07:47;;;;;;;11.00;8.65;;;15.80;99.90;;;;;;4908098;29;20044;-72
2023/06/08 14:10:13;;;;;;;11.95;8.95;;;16.10;99.90;;;;;;4906898;29;20024;-75
2023/06/08 14:12:39;;;;;;;10.43;7.95;;;15.80;99.90;;;;;;4907761;29;20036;-72
2023/06/08 14:15:07;;;;;;;10.00;8.02;;;16.20;99.90;;;;;;4907268;29;20140;-71
2023/06/08 14:17:33;;;;;;;10.63;7.90;;;15.90;99.90;;;;;;4907687;29;20032;-72
2023/06/08 14:19:59;;;;;;;10.73;8.18;;;16.00;99.90;;;;;;4907666;29;20036;-73
2023/06/08 14:22:25;;;;;;;10.77;7.80;;;16.20;99.90;;;;;;4907027;29;20301;-73
2023/06/08 14:24:51;;;;;;;11.45;7.15;;;16.00;99.90;;;;;;4907375;29;20036;-74
2023/06/08 14:27:17;;;;;;;9.27;6.55;;;15.90;99.90;;;;;;4906738;29;20107;-72
2023/06/08 14:29:42;;;;;;;9.75;7.93;;;16.20;99.90;;;;;;4907677;29;20072;-73
2023/06/08 14:32:08;;;;;;;14.10;9.48;;;16.20;99.90;;;;;;4906700;29;20060;-74
2023/06/08 14:34:34;;;;;;;15.18;9.68;;;16.70;99.90;;;;;;4890360;29;20036;-73
2023/06/08 14:36:59;;;;;;;12.55;7.75;;;16.20;99.90;;;;;;4907394;29;20175;-74
2023/06/08 14:39:25;;;;;;;9.40;8.25;;;16.40;99.90;;;;;;4906591;29;20073;-74
2023/06/08 14:41:51;;;;;;;10.07;7.07;;;16.20;99.90;;;;;;4907161;29;20230;-74
2023/06/08 14:44:17;;;;;;;10.68;8.48;;;16.30;99.90;;;;;;4906697;29;20042;-73
2023/06/08 14:46:42;;;;;;;10.30;8.45;;;16.40;99.90;;;;;;4906912;29;20056;-73
2023/06/08 14:49:08;;;;;;;11.25;8.93;;;16.20;99.90;;;;;;4906671;29;20076;-74
2023/06/08 14:51:34;;;;;;;10.50;7.80;;;16.70;99.90;;;;;;4908075;29;20025;-74
2023/06/08 14:53:59;;;;;;;9.02;6.43;;;16.30;99.90;;;;;;4911198;29;20017;-75
2023/06/08 14:56:25;;;;;;;9.50;6.53;;;16.20;99.90;;;;;;4910300;29;20040;-75
2023/06/08 14:58:51;;;;;;;8.82;7.03;;;16.20;99.90;;;;;;4910932;29;20028;-76
2023/06/08 15:01:16;;;;;;;6.60;5.40;;;16.30;99.90;;;;;;4910523;29;20048;-72
2023/06/08 15:03:43;;;;;;;8.85;5.80;;;16.40;99.90;;;;;;4910872;29;20323;-71
2023/06/08 15:06:09;;;;;;;6.80;5.45;;;16.50;99.90;;;;;;4910205;29;20100;-72
2023/06/08 15:08:34;;;;;;;9.50;6.20;;;16.80;99.90;;;;;;4910879;29;20072;-71
2023/06/08 15:11:00;;;;;;;9.70;6.65;;;17.40;99.90;;;;;;4910512;29;20056;-76
2023/06/08 15:13:26;;;;;;;11.50;7.22;;;17.70;99.90;;;;;;4910283;29;20052;-71
2023/06/08 15:15:51;;;;;;;9.65;6.70;;;17.80;99.90;;;;;;4910962;29;20223;-71
2023/06/08 15:18:17;;;;;;;11.45;8.32;;;17.50;99.90;;;;;;4909863;29;20056;-71
2023/06/08 15:20:43;;;;;;;15.43;9.98;;;17.10;99.90;;;;;;4910361;29;20251;-70
2023/06/08 15:23:09;;;;;;;17.75;12.70;;;17.10;99.90;;;;;;4909967;29;20060;-70
2023/06/08 15:25:36;;;;;;;10.95;8.85;;;16.90;99.90;;;;;;4910320;29;20216;-73
2023/06/08 15:28:01;;;;;;;11.07;9.13;;;17.00;99.90;;;;;;4893733;29;20103;-71
2023/06/08 15:30:27;;;;;;;14.50;8.57;;;17.80;99.90;;;;;;4909575;29;20036;-71
2023/06/08 15:32:53;;;;;;;11.07;8.15;;;18.10;99.90;;;;;;4910460;29;20040;-73
2023/06/08 15:35:19;;;;;;;9.88;7.85;;;18.40;99.90;;;;;;4909704;29;20330;-72
2023/06/08 15:37:45;;;;;;;8.85;6.57;;;18.50;99.90;;;;;;4910135;29;20048;-72
2023/06/08 15:40:17;;;;;;;10.52;7.45;;;18.50;99.90;;;;;;4909893;29;20036;-71
2023/06/08 15:42:43;;;;;;;8.40;6.72;;;18.70;99.90;;;;;;4910278;29;20103;-75
2023/06/08 15:45:09;;;;;;;8.32;6.93;;;19.10;99.90;;;;;;4910052;29;20037;-71
2023/06/08 15:47:35;;;;;;;10.25;7.13;;;19.40;99.90;;;;;;4910352;29;20328;-72
2023/06/08 15:50:01;;;;;;;9.90;7.00;;;19.60;99.90;;;;;;4909994;29;20037;-72
2023/06/08 15:52:26;;;;;;;8.18;6.40;;;19.60;99.90;;;;;;4909736;29;20208;-73
2023/06/08 15:54:52;;;;;;;9.68;6.07;;;19.60;99.90;;;;;;4910203;29;20032;-72
2023/06/08 15:57:18;;;;;;;8.05;6.03;;;19.60;99.90;;;;;;4909519;29;20028;-73
2023/06/08 15:59:44;;;;;;;7.53;5.80;;;19.50;99.90;;;;;;4893121;29;20116;-71
2023/06/08 16:02:10;;;;;;;8.15;6.05;;;19.60;99.90;;;;;;4909045;29;20096;-72
2023/06/08 16:04:35;;;;;;;8.13;6.32;;;20.00;99.90;;;;;;4909878;29;20048;-73
2023/06/08 16:07:01;;;;;;;10.13;6.15;;;19.90;99.90;;;;;;4909835;29;20028;-71
2023/06/08 16:09:27;;;;;;;7.40;5.40;;;19.40;99.90;;;;;;4909423;29;20279;-72
2023/06/08 16:11:53;;;;;;;6.38;5.38;;;19.30;99.90;;;;;;4909582;29;20100;-72
2023/06/08 16:14:19;;;;;;;8.25;5.88;;;20.20;99.90;;;;;;4892755;29;20056;-73
2023/06/08 16:16:44;;;;;;;23.45;19.67;;;21.00;99.90;;;;;;4909823;29;20028;-71
2023/06/08 16:19:10;;;;;;;6.97;5.50;;;21.00;99.90;;;;;;4909240;29;20044;-74
2023/06/08 16:21:41;;;;;;;6.75;5.05;;;21.20;99.90;;;;;;4892938;29;20032;-72
2023/06/08 16:24:20;;;;;;;6.25;4.68;;;21.30;99.90;;;;;;4909711;29;20127;-72
2023/06/08 16:26:45;;;;;;;7.22;5.22;;;21.60;99.90;;;;;;4909840;29;20090;-72
2023/06/08 16:29:11;;;;;;;6.88;5.45;;;21.60;99.90;;;;;;4909075;29;20323;-72
2023/06/08 16:31:40;;;;;;;7.43;4.90;;;21.60;99.90;;;;;;4909325;29;20040;-71
2023/06/08 16:34:06;;;;;;;7.30;4.70;;;22.40;99.90;;;;;;4909441;29;20036;-74
2023/06/08 16:36:32;;;;;;;6.88;4.93;;;24.30;99.90;;;;;;4908726;29;20099;-74
2023/06/08 16:38:58;;;;;;;6.43;4.80;;;25.80;99.90;;;;;;4892773;29;20063;-72
2023/06/08 16:41:25;;;;;;;8.30;5.40;;;26.90;99.90;;;;;;4908984;29;20032;-73
2023/06/08 16:43:51;;;;;;;5.87;4.40;;;28.30;99.90;;;;;;4909468;29;20060;-73
2023/06/08 16:46:17;;;;;;;5.25;4.10;;;28.90;99.90;;;;;;4908903;29;20092;-72
2023/06/08 16:48:43;;;;;;;7.82;4.30;;;30.10;99.90;;;;;;4909264;29;20035;-73
2023/06/08 16:51:09;;;;;;;6.13;4.20;;;31.10;94.10;;;;;;4909447;29;20041;-72
2023/06/08 16:53:35;;;;;;;4.95;4.40;;;31.30;91.30;;;;;;4908818;29;20095;-74
2023/06/08 16:56:02;;;;;;;6.47;4.15;;;31.30;83.20;;;;;;4908984;29;20044;-71
2023/06/08 16:58:27;;;;;;;7.95;4.47;;;30.70;84.70;;;;;;4908600;29;20091;-72
2023/06/08 17:00:53;;;;;;;5.07;3.95;;;30.50;80.50;;;;;;4909050;29;20028;-72
2023/06/08 17:03:19;;;;;;;6.88;4.90;;;30.70;75.60;;;;;;4907891;29;20081;-72
2023/06/08 17:05:45;;;;;;;6.28;4.18;;;30.30;74.60;;;;;;4909106;29;20024;-72
2023/06/08 17:08:11;;;;;;;5.78;4.30;;;29.70;76.50;;;;;;4908936;29;20378;-70
2023/06/08 17:10:37;;;;;;;5.95;4.38;;;28.60;75.00;;;;;;4908900;29;20024;-71
2023/06/08 17:13:05;;;;;;;8.02;4.60;;;27.80;76.50;;;;;;4892032;29;20029;-72
2023/06/08 17:15:31;;;;;;;6.72;4.63;;;27.30;80.80;;;;;;4907561;29;20711;-75
2023/06/08 17:17:57;;;;;;;5.88;4.55;;;27.50;77.30;;;;;;4908836;29;20303;-71
2023/06/08 17:20:22;;;;;;;6.10;4.10;;;28.20;76.70;;;;;;4908188;29;20108;-72
2023/06/08 17:22:48;;;;;;;6.20;4.20;;;29.60;71.80;;;;;;4908345;29;20083;-72
2023/06/08 17:25:14;;;;;;;6.20;4.10;;;31.00;71.50;;;;;;4908136;29;20041;-72
2023/06/08 17:27:40;;;;;;;4.80;3.83;;;32.10;65.90;;;;;;4908840;29;20243;-72
2023/06/08 17:30:08;;;;;;;7.25;4.25;;;30.70;66.10;;;;;;4908635;29;20039;-72
2023/06/08 17:32:34;;;;;;;5.82;3.80;;;29.50;68.60;;;;;;4907832;29;20041;-73
2023/06/08 17:35:00;;;;;;;6.40;4.78;;;30.70;68.60;;;;;;4908184;29;20030;-70
2023/06/08 17:37:25;;;;;;;6.47;3.92;;;32.10;67.20;;;;;;4907805;29;20032;-73
2023/06/08 17:39:52;;;;;;;6.53;4.55;;;32.40;66.90;;;;;;4908290;29;20356;-72
2023/06/08 17:42:17;;;;;;;6.53;4.28;;;31.70;68.30;;;;;;4907491;29;20040;-73
2023/06/08 17:44:43;;;;;;;5.30;3.95;;;31.60;66.80;;;;;;4908301;29;20188;-72
2023/06/08 17:47:09;;;;;;;5.60;4.18;;;30.90;66.10;;;;;;4908299;29;20025;-72
2023/06/08 17:49:35;;;;;;;6.65;4.05;;;30.40;69.50;;;;;;4890811;29;20036;-72